sensor_id;sensor_type;location;lat;lon;timestamp;pressure;altitude;pressure_sealevel;temperature;humidity
9905;BME280;4991;43.566;27.820;2023-11-21T00:00:20;98560.47;;;6.26;100.00
9905;BME280;4991;43.566;27.820;2023-11-21T00:02:47;98531.16;;;6.05;100.00
9905;BME280;4991;43.566;27.820;2023-11-21T00:05:13;98551.66;;;6.11;100.00
9905;BME280;4991;43.566;27.820;2023-11-21T00:07:40;98589.91;;;6.33;100.00
9905;BME280;4991;43.566;27.820;2023-11-21T00:10:07;98593.19;;;6.25;100.00
9905;BME280;4991;43.566;27.820;2023-11-21T00:12:36;98571.69;;;6.05;100.00
9905;BME280;4991;43.566;27.820;2023-11-21T00:15:02;98591.88;;;6.17;100.00
9905;BME280;4991;43.566;27.820;2023-11-21T00:17:30;98588.34;;;6.17;100.00
9905;BME280;4991;43.566;27.820;2023-11-21T00:19:56;98560.41;;;5.93;100.00
9905;BME280;4991;43.566;27.820;2023-11-21T00:22:22;98524.03;;;5.70;100.00
9905;BME280;4991;43.566;27.820;2023-11-21T00:24:47;98548.53;;;5.89;100.00
9905;BME280;4991;43.566;27.820;2023-11-21T00:27:13;98546.53;;;6.09;100.00
9905;BME280;4991;43.566;27.820;2023-11-21T00:29:40;98538.72;;;6.03;100.00
9905;BME280;4991;43.566;27.820;2023-11-21T00:32:06;98573.41;;;6.29;100.00
9905;BME280;4991;43.566;27.820;2023-11-21T00:34:32;98546.50;;;6.14;100.00
9905;BME280;4991;43.566;27.820;2023-11-21T00:36:58;98519.25;;;6.06;100.00
9905;BME280;4991;43.566;27.820;2023-11-21T00:39:24;98519.50;;;6.09;100.00
9905;BME280;4991;43.566;27.820;2023-11-21T00:41:51;98571.69;;;6.43;100.00
9905;BME280;4991;43.566;27.820;2023-11-21T00:44:17;98526.44;;;6.20;100.00
9905;BME280;4991;43.566;27.820;2023-11-21T00:46:43;98535.81;;;6.33;100.00
9905;BME280;4991;43.566;27.820;2023-11-21T00:49:08;98522.38;;;6.23;100.00
9905;BME280;4991;43.566;27.820;2023-11-21T00:51:34;98537.69;;;6.32;100.00
9905;BME280;4991;43.566;27.820;2023-11-21T00:54:00;98533.44;;;6.26;100.00
9905;BME280;4991;43.566;27.820;2023-11-21T00:56:26;98511.66;;;6.08;100.00
9905;BME280;4991;43.566;27.820;2023-11-21T00:58:52;98523.19;;;6.23;100.00
9905;BME280;4991;43.566;27.820;2023-11-21T01:01:21;98545.88;;;6.22;100.00
9905;BME280;4991;43.566;27.820;2023-11-21T01:03:50;98559.88;;;6.34;100.00
9905;BME280;4991;43.566;27.820;2023-11-21T01:06:16;98554.75;;;6.33;100.00
9905;BME280;4991;43.566;27.820;2023-11-21T01:08:43;98535.28;;;6.31;100.00
9905;BME280;4991;43.566;27.820;2023-11-21T01:11:08;98520.78;;;6.17;100.00
9905;BME280;4991;43.566;27.820;2023-11-21T01:13:35;98570.28;;;6.51;100.00
9905;BME280;4991;43.566;27.820;2023-11-21T01:16:01;98521.31;;;6.19;100.00
9905;BME280;4991;43.566;27.820;2023-11-21T01:18:26;98536.91;;;6.27;100.00
9905;BME280;4991;43.566;27.820;2023-11-21T01:20:52;98563.78;;;6.52;100.00
9905;BME280;4991;43.566;27.820;2023-11-21T01:23:19;98571.13;;;6.46;100.00
9905;BME280;4991;43.566;27.820;2023-11-21T01:25:45;98509.28;;;6.01;100.00
9905;BME280;4991;43.566;27.820;2023-11-21T01:28:10;98538.63;;;6.18;100.00
9905;BME280;4991;43.566;27.820;2023-11-21T01:30:37;98538.88;;;6.21;100.00
9905;BME280;4991;43.566;27.820;2023-11-21T01:33:03;98535.69;;;6.14;100.00
9905;BME280;4991;43.566;27.820;2023-11-21T01:35:29;98548.75;;;6.36;100.00
9905;BME280;4991;43.566;27.820;2023-11-21T01:37:54;98527.81;;;6.18;100.00
9905;BME280;4991;43.566;27.820;2023-11-21T01:40:20;98524.63;;;6.11;100.00
9905;BME280;4991;43.566;27.820;2023-11-21T01:42:46;98521.66;;;6.07;100.00
9905;BME280;4991;43.566;27.820;2023-11-21T01:45:13;98538.28;;;6.29;100.00
9905;BME280;4991;43.566;27.820;2023-11-21T01:47:41;98540.94;;;6.34;100.00
9905;BME280;4991;43.566;27.820;2023-11-21T01:50:14;98495.47;;;6.03;100.00
9905;BME280;4991;43.566;27.820;2023-11-21T01:52:43;98508.94;;;6.13;100.00
9905;BME280;4991;43.566;27.820;2023-11-21T01:55:09;98498.16;;;6.08;100.00
9905;BME280;4991;43.566;27.820;2023-11-21T01:57:36;98490.84;;;6.08;100.00
9905;BME280;4991;43.566;27.820;2023-11-21T02:00:05;98522.16;;;6.14;100.00
9905;BME280;4991;43.566;27.820;2023-11-21T02:02:45;98514.25;;;6.23;100.00
9905;BME280;4991;43.566;27.820;2023-11-21T02:05:17;98529.69;;;6.17;100.00
9905;BME280;4991;43.566;27.820;2023-11-21T02:07:44;98533.22;;;6.18;100.00
9905;BME280;4991;43.566;27.820;2023-11-21T02:10:10;98540.56;;;6.12;100.00
9905;BME280;4991;43.566;27.820;2023-11-21T02:12:43;98496.16;;;5.85;100.00
9905;BME280;4991;43.566;27.820;2023-11-21T02:15:13;98536.53;;;6.10;100.00
9905;BME280;4991;43.566;27.820;2023-11-21T02:17:46;98513.44;;;5.84;100.00
9905;BME280;4991;43.566;27.820;2023-11-21T02:20:23;98493.16;;;5.81;100.00
9905;BME280;4991;43.566;27.820;2023-11-21T02:22:50;98514.22;;;5.89;100.00
9905;BME280;4991;43.566;27.820;2023-11-21T02:25:24;98482.47;;;5.66;100.00
9905;BME280;4991;43.566;27.820;2023-11-21T02:27:50;98500.25;;;5.72;100.00
9905;BME280;4991;43.566;27.820;2023-11-21T02:30:16;98527.47;;;5.86;100.00
9905;BME280;4991;43.566;27.820;2023-11-21T02:32:42;98495.94;;;5.71;100.00
9905;BME280;4991;43.566;27.820;2023-11-21T02:35:08;98544.72;;;5.95;100.00
9905;BME280;4991;43.566;27.820;2023-11-21T02:37:35;98540.72;;;5.87;100.00
9905;BME280;4991;43.566;27.820;2023-11-21T02:40:01;98524.84;;;5.71;100.00
9905;BME280;4991;43.566;27.820;2023-11-21T02:42:30;98569.06;;;5.95;100.00
9905;BME280;4991;43.566;27.820;2023-11-21T02:44:55;98517.59;;;5.61;100.00
9905;BME280;4991;43.566;27.820;2023-11-21T02:47:22;98531.38;;;5.65;100.00
9905;BME280;4991;43.566;27.820;2023-11-21T02:49:49;98539.72;;;5.68;100.00
9905;BME280;4991;43.566;27.820;2023-11-21T02:52:14;98523.56;;;5.58;100.00
9905;BME280;4991;43.566;27.820;2023-11-21T02:54:40;98519.31;;;5.47;100.00
9905;BME280;4991;43.566;27.820;2023-11-21T02:57:06;98558.41;;;5.60;100.00
9905;BME280;4991;43.566;27.820;2023-11-21T02:59:33;98546.03;;;5.49;100.00
9905;BME280;4991;43.566;27.820;2023-11-21T03:01:58;98485.44;;;5.11;100.00
9905;BME280;4991;43.566;27.820;2023-11-21T03:04:24;98562.22;;;5.54;100.00
9905;BME280;4991;43.566;27.820;2023-11-21T03:06:49;98571.38;;;5.53;100.00
9905;BME280;4991;43.566;27.820;2023-11-21T03:09:15;98527.25;;;5.18;100.00
9905;BME280;4991;43.566;27.820;2023-11-21T03:11:41;98520.50;;;5.16;100.00
9905;BME280;4991;43.566;27.820;2023-11-21T03:14:07;98580.59;;;5.47;100.00
9905;BME280;4991;43.566;27.820;2023-11-21T03:16:32;98575.50;;;5.35;100.00
9905;BME280;4991;43.566;27.820;2023-11-21T03:18:58;98573.38;;;5.32;100.00
9905;BME280;4991;43.566;27.820;2023-11-21T03:21:44;98560.97;;;5.16;100.00
9905;BME280;4991;43.566;27.820;2023-11-21T03:24:09;98545.91;;;5.05;100.00
9905;BME280;4991;43.566;27.820;2023-11-21T03:26:35;98549.72;;;4.94;100.00
9905;BME280;4991;43.566;27.820;2023-11-21T03:29:04;98556.47;;;4.91;100.00
9905;BME280;4991;43.566;27.820;2023-11-21T03:31:30;98561.84;;;4.96;100.00
9905;BME280;4991;43.566;27.820;2023-11-21T03:33:57;98550.53;;;4.89;100.00
9905;BME280;4991;43.566;27.820;2023-11-21T03:36:22;98512.56;;;4.61;100.00
9905;BME280;4991;43.566;27.820;2023-11-21T03:38:50;98596.63;;;5.08;100.00
9905;BME280;4991;43.566;27.820;2023-11-21T03:41:23;98564.00;;;4.84;100.00
9905;BME280;4991;43.566;27.820;2023-11-21T03:43:48;98554.59;;;4.77;100.00
9905;BME280;4991;43.566;27.820;2023-11-21T03:46:14;98548.66;;;4.70;100.00
9905;BME280;4991;43.566;27.820;2023-11-21T03:48:49;98592.91;;;4.94;100.00
9905;BME280;4991;43.566;27.820;2023-11-21T03:51:25;98555.66;;;4.81;100.00
9905;BME280;4991;43.566;27.820;2023-11-21T03:53:58;98585.31;;;4.91;100.00
9905;BME280;4991;43.566;27.820;2023-11-21T03:56:24;98592.91;;;4.94;100.00
9905;BME280;4991;43.566;27.820;2023-11-21T03:58:51;98581.28;;;4.88;100.00
9905;BME280;4991;43.566;27.820;2023-11-21T04:01:23;98567.81;;;4.88;100.00
9905;BME280;4991;43.566;27.820;2023-11-21T04:03:50;98560.53;;;4.74;100.00
9905;BME280;4991;43.566;27.820;2023-11-21T04:06:17;98525.50;;;4.54;100.00
9905;BME280;4991;43.566;27.820;2023-11-21T04:08:43;98543.81;;;4.67;100.00
9905;BME280;4991;43.566;27.820;2023-11-21T04:11:10;98546.78;;;4.75;100.00
9905;BME280;4991;43.566;27.820;2023-11-21T04:13:40;98556.19;;;4.83;100.00
9905;BME280;4991;43.566;27.820;2023-11-21T04:16:37;98588.00;;;5.06;100.00
9905;BME280;4991;43.566;27.820;2023-11-21T04:19:29;98586.94;;;5.07;100.00
9905;BME280;4991;43.566;27.820;2023-11-21T04:22:05;98561.56;;;4.93;100.00
9905;BME280;4991;43.566;27.820;2023-11-21T04:24:41;98599.31;;;5.08;100.00
9905;BME280;4991;43.566;27.820;2023-11-21T04:27:06;98568.88;;;4.92;100.00
9905;BME280;4991;43.566;27.820;2023-11-21T04:29:43;98593.09;;;5.12;100.00
9905;BME280;4991;43.566;27.820;2023-11-21T04:32:31;98581.22;;;5.18;100.00
9905;BME280;4991;43.566;27.820;2023-11-21T04:34:56;98562.94;;;4.95;100.00
9905;BME280;4991;43.566;27.820;2023-11-21T04:37:22;98565.63;;;5.05;100.00
9905;BME280;4991;43.566;27.820;2023-11-21T04:39:48;98580.41;;;5.23;100.00
9905;BME280;4991;43.566;27.820;2023-11-21T04:42:13;98573.97;;;5.14;100.00
9905;BME280;4991;43.566;27.820;2023-11-21T04:44:39;98577.47;;;5.09;100.00
9905;BME280;4991;43.566;27.820;2023-11-21T04:47:06;98590.94;;;5.19;100.00
9905;BME280;4991;43.566;27.820;2023-11-21T04:49:33;98580.16;;;5.04;100.00
9905;BME280;4991;43.566;27.820;2023-11-21T04:51:59;98605.78;;;5.27;100.00
9905;BME280;4991;43.566;27.820;2023-11-21T04:54:25;98590.13;;;5.19;100.00
9905;BME280;4991;43.566;27.820;2023-11-21T04:56:53;98573.19;;;4.98;100.00
9905;BME280;4991;43.566;27.820;2023-11-21T04:59:19;98576.94;;;5.02;100.00
9905;BME280;4991;43.566;27.820;2023-11-21T05:01:47;98606.06;;;5.20;100.00
9905;BME280;4991;43.566;27.820;2023-11-21T05:04:13;98615.50;;;5.18;100.00
9905;BME280;4991;43.566;27.820;2023-11-21T05:06:40;98607.16;;;5.09;100.00
9905;BME280;4991;43.566;27.820;2023-11-21T05:09:08;98591.78;;;5.00;100.00
9905;BME280;4991;43.566;27.820;2023-11-21T05:11:43;98582.63;;;4.86;100.00
9905;BME280;4991;43.566;27.820;2023-11-21T05:14:32;98619.84;;;5.09;100.00
9905;BME280;4991;43.566;27.820;2023-11-21T05:16:58;98590.72;;;4.91;100.00
9905;BME280;4991;43.566;27.820;2023-11-21T05:19:29;98529.53;;;4.46;100.00
9905;BME280;4991;43.566;27.820;2023-11-21T05:22:05;98605.31;;;4.90;100.00
9905;BME280;4991;43.566;27.820;2023-11-21T05:24:31;98595.31;;;4.90;100.00
9905;BME280;4991;43.566;27.820;2023-11-21T05:26:56;98601.50;;;4.91;100.00
9905;BME280;4991;43.566;27.820;2023-11-21T05:29:23;98587.50;;;4.84;100.00
9905;BME280;4991;43.566;27.820;2023-11-21T05:31:48;98625.28;;;4.99;100.00
9905;BME280;4991;43.566;27.820;2023-11-21T05:34:14;98650.06;;;5.11;100.00
9905;BME280;4991;43.566;27.820;2023-11-21T05:36:43;98601.78;;;4.84;100.00
9905;BME280;4991;43.566;27.820;2023-11-21T05:39:09;98637.41;;;5.01;100.00
9905;BME280;4991;43.566;27.820;2023-11-21T05:41:37;98646.84;;;5.04;100.00
9905;BME280;4991;43.566;27.820;2023-11-21T05:44:03;98626.06;;;4.89;100.00
9905;BME280;4991;43.566;27.820;2023-11-21T05:46:28;98592.38;;;4.82;100.00
9905;BME280;4991;43.566;27.820;2023-11-21T05:48:55;98602.59;;;4.90;100.00
9905;BME280;4991;43.566;27.820;2023-11-21T05:51:20;98616.63;;;5.07;100.00
9905;BME280;4991;43.566;27.820;2023-11-21T05:53:46;98603.66;;;5.09;100.00
9905;BME280;4991;43.566;27.820;2023-11-21T05:56:12;98642.19;;;5.35;100.00
9905;BME280;4991;43.566;27.820;2023-11-21T05:58:39;98636.25;;;5.38;100.00
9905;BME280;4991;43.566;27.820;2023-11-21T06:01:05;98624.38;;;5.34;100.00
9905;BME280;4991;43.566;27.820;2023-11-21T06:03:35;98635.69;;;5.46;100.00
9905;BME280;4991;43.566;27.820;2023-11-21T06:06:00;98620.00;;;5.48;100.00
9905;BME280;4991;43.566;27.820;2023-11-21T06:08:27;98593.59;;;5.35;100.00
9905;BME280;4991;43.566;27.820;2023-11-21T06:10:53;98620.00;;;5.53;100.00
9905;BME280;4991;43.566;27.820;2023-11-21T06:13:18;98625.63;;;5.66;100.00
9905;BME280;4991;43.566;27.820;2023-11-21T06:15:50;98646.66;;;5.74;100.00
9905;BME280;4991;43.566;27.820;2023-11-21T06:18:17;98588.69;;;5.47;100.00
9905;BME280;4991;43.566;27.820;2023-11-21T06:20:46;98631.53;;;5.78;100.00
9905;BME280;4991;43.566;27.820;2023-11-21T06:23:12;98653.06;;;6.03;100.00
9905;BME280;4991;43.566;27.820;2023-11-21T06:25:37;98598.00;;;5.89;100.00
9905;BME280;4991;43.566;27.820;2023-11-21T06:28:03;98668.53;;;6.41;100.00
9905;BME280;4991;43.566;27.820;2023-11-21T06:30:29;98621.56;;;6.27;100.00
9905;BME280;4991;43.566;27.820;2023-11-21T06:32:54;98572.69;;;6.14;100.00
9905;BME280;4991;43.566;27.820;2023-11-21T06:35:21;98592.22;;;6.49;100.00
9905;BME280;4991;43.566;27.820;2023-11-21T06:37:47;98629.03;;;6.79;100.00
9905;BME280;4991;43.566;27.820;2023-11-21T06:40:13;98650.97;;;7.11;100.00
9905;BME280;4991;43.566;27.820;2023-11-21T06:42:44;98646.97;;;7.32;100.00
9905;BME280;4991;43.566;27.820;2023-11-21T06:45:10;98581.50;;;6.97;100.00
9905;BME280;4991;43.566;27.820;2023-11-21T06:47:38;98569.50;;;7.08;100.00
9905;BME280;4991;43.566;27.820;2023-11-21T06:50:04;98600.22;;;7.45;100.00
9905;BME280;4991;43.566;27.820;2023-11-21T06:52:29;98620.22;;;7.73;100.00
9905;BME280;4991;43.566;27.820;2023-11-21T06:54:55;98609.53;;;7.81;100.00
9905;BME280;4991;43.566;27.820;2023-11-21T06:57:23;98572.00;;;7.70;100.00
9905;BME280;4991;43.566;27.820;2023-11-21T06:59:48;98624.66;;;8.06;100.00
9905;BME280;4991;43.566;27.820;2023-11-21T07:02:16;98636.91;;;8.27;100.00
9905;BME280;4991;43.566;27.820;2023-11-21T07:04:45;98586.28;;;7.99;100.00
9905;BME280;4991;43.566;27.820;2023-11-21T07:07:11;98636.47;;;8.39;100.00
9905;BME280;4991;43.566;27.820;2023-11-21T07:09:38;98556.22;;;7.96;100.00
9905;BME280;4991;43.566;27.820;2023-11-21T07:12:04;98571.69;;;7.95;100.00
9905;BME280;4991;43.566;27.820;2023-11-21T07:14:33;98636.09;;;8.45;100.00
9905;BME280;4991;43.566;27.820;2023-11-21T07:16:59;98600.34;;;8.20;100.00
9905;BME280;4991;43.566;27.820;2023-11-21T07:19:27;98612.63;;;8.36;100.00
9905;BME280;4991;43.566;27.820;2023-11-21T07:21:52;98608.44;;;8.43;100.00
9905;BME280;4991;43.566;27.820;2023-11-21T07:24:18;98650.81;;;8.76;100.00
9905;BME280;4991;43.566;27.820;2023-11-21T07:26:43;98591.56;;;8.46;100.00
9905;BME280;4991;43.566;27.820;2023-11-21T07:29:09;98628.00;;;8.77;100.00
9905;BME280;4991;43.566;27.820;2023-11-21T07:31:37;98660.78;;;8.99;100.00
9905;BME280;4991;43.566;27.820;2023-11-21T07:34:03;98652.63;;;8.99;100.00
9905;BME280;4991;43.566;27.820;2023-11-21T07:36:30;98607.09;;;8.59;100.00
9905;BME280;4991;43.566;27.820;2023-11-21T07:38:56;98629.19;;;8.71;100.00
9905;BME280;4991;43.566;27.820;2023-11-21T07:41:21;98604.03;;;8.47;100.00
9905;BME280;4991;43.566;27.820;2023-11-21T07:43:47;98612.75;;;8.44;100.00
9905;BME280;4991;43.566;27.820;2023-11-21T07:46:13;98582.34;;;8.29;100.00
9905;BME280;4991;43.566;27.820;2023-11-21T07:48:40;98667.97;;;8.90;100.00
9905;BME280;4991;43.566;27.820;2023-11-21T07:51:07;98655.19;;;8.91;100.00
9905;BME280;4991;43.566;27.820;2023-11-21T07:53:34;98675.28;;;9.08;100.00
9905;BME280;4991;43.566;27.820;2023-11-21T07:56:05;98632.97;;;8.89;100.00
9905;BME280;4991;43.566;27.820;2023-11-21T07:58:32;98622.53;;;8.96;100.00
9905;BME280;4991;43.566;27.820;2023-11-21T08:01:01;98640.59;;;9.19;100.00
9905;BME280;4991;43.566;27.820;2023-11-21T08:03:27;98612.75;;;9.27;100.00
9905;BME280;4991;43.566;27.820;2023-11-21T08:05:54;98643.06;;;9.48;100.00
9905;BME280;4991;43.566;27.820;2023-11-21T08:08:20;98609.75;;;9.42;100.00
9905;BME280;4991;43.566;27.820;2023-11-21T08:10:46;98651.25;;;9.75;100.00
9905;BME280;4991;43.566;27.820;2023-11-21T08:13:25;98602.09;;;9.58;100.00
9905;BME280;4991;43.566;27.820;2023-11-21T08:15:55;98639.88;;;9.86;100.00
9905;BME280;4991;43.566;27.820;2023-11-21T08:18:22;98659.41;;;10.02;100.00
9905;BME280;4991;43.566;27.820;2023-11-21T08:20:48;98604.44;;;9.78;100.00
9905;BME280;4991;43.566;27.820;2023-11-21T08:23:15;98628.69;;;10.01;100.00
9905;BME280;4991;43.566;27.820;2023-11-21T08:25:44;98632.53;;;10.14;100.00
9905;BME280;4991;43.566;27.820;2023-11-21T08:28:12;98620.69;;;10.32;100.00
9905;BME280;4991;43.566;27.820;2023-11-21T08:30:39;98614.59;;;10.49;100.00
9905;BME280;4991;43.566;27.820;2023-11-21T08:33:07;98659.31;;;10.92;100.00
9905;BME280;4991;43.566;27.820;2023-11-21T08:35:34;98666.44;;;11.01;100.00
9905;BME280;4991;43.566;27.820;2023-11-21T08:38:00;98636.59;;;10.96;100.00
9905;BME280;4991;43.566;27.820;2023-11-21T08:40:26;98638.63;;;11.13;100.00
9905;BME280;4991;43.566;27.820;2023-11-21T08:42:52;98649.97;;;11.28;100.00
9905;BME280;4991;43.566;27.820;2023-11-21T08:45:19;98600.94;;;11.06;100.00
9905;BME280;4991;43.566;27.820;2023-11-21T08:47:45;98615.78;;;11.22;100.00
9905;BME280;4991;43.566;27.820;2023-11-21T08:50:11;98619.53;;;11.35;100.00
9905;BME280;4991;43.566;27.820;2023-11-21T08:52:41;98596.13;;;11.34;100.00
9905;BME280;4991;43.566;27.820;2023-11-21T08:55:10;98639.66;;;11.78;100.00
9905;BME280;4991;43.566;27.820;2023-11-21T08:57:38;98638.00;;;12.08;100.00
9905;BME280;4991;43.566;27.820;2023-11-21T09:00:05;98600.00;;;11.81;100.00
9905;BME280;4991;43.566;27.820;2023-11-21T09:02:41;98595.72;;;11.49;100.00
9905;BME280;4991;43.566;27.820;2023-11-21T09:05:10;98641.63;;;11.86;100.00
9905;BME280;4991;43.566;27.820;2023-11-21T09:07:38;98630.84;;;11.81;100.00
9905;BME280;4991;43.566;27.820;2023-11-21T09:10:05;98591.16;;;11.66;100.00
9905;BME280;4991;43.566;27.820;2023-11-21T09:12:33;98588.97;;;11.94;100.00
9905;BME280;4991;43.566;27.820;2023-11-21T09:15:02;98549.06;;;12.15;100.00
9905;BME280;4991;43.566;27.820;2023-11-21T09:17:29;98620.56;;;14.03;100.00
9905;BME280;4991;43.566;27.820;2023-11-21T09:19:55;98598.81;;;14.77;100.00
9905;BME280;4991;43.566;27.820;2023-11-21T09:22:22;98568.22;;;15.65;100.00
9905;BME280;4991;43.566;27.820;2023-11-21T09:24:50;98563.38;;;15.49;100.00
9905;BME280;4991;43.566;27.820;2023-11-21T09:27:16;98579.84;;;15.49;100.00
9905;BME280;4991;43.566;27.820;2023-11-21T09:29:43;98615.22;;;15.87;100.00
9905;BME280;4991;43.566;27.820;2023-11-21T09:32:09;98554.81;;;15.63;100.00
9905;BME280;4991;43.566;27.820;2023-11-21T09:34:39;98560.09;;;15.92;100.00
9905;BME280;4991;43.566;27.820;2023-11-21T09:37:05;98601.84;;;15.74;100.00
9905;BME280;4991;43.566;27.820;2023-11-21T09:39:32;98590.84;;;15.49;100.00
9905;BME280;4991;43.566;27.820;2023-11-21T09:42:15;98589.03;;;15.90;100.00
9905;BME280;4991;43.566;27.820;2023-11-21T09:44:56;98595.31;;;16.26;100.00
9905;BME280;4991;43.566;27.820;2023-11-21T09:47:24;98589.16;;;15.81;100.00
9905;BME280;4991;43.566;27.820;2023-11-21T09:49:50;98596.25;;;15.37;100.00
9905;BME280;4991;43.566;27.820;2023-11-21T09:52:27;98579.53;;;15.18;100.00
9905;BME280;4991;43.566;27.820;2023-11-21T09:54:54;98554.94;;;14.77;100.00
9905;BME280;4991;43.566;27.820;2023-11-21T09:57:23;98547.97;;;14.47;100.00
9905;BME280;4991;43.566;27.820;2023-11-21T09:59:53;98536.47;;;14.54;100.00
9905;BME280;4991;43.566;27.820;2023-11-21T10:02:25;98523.84;;;14.41;100.00
9905;BME280;4991;43.566;27.820;2023-11-21T10:04:53;98550.97;;;14.87;100.00
9905;BME280;4991;43.566;27.820;2023-11-21T10:07:20;98538.06;;;14.55;100.00
9905;BME280;4991;43.566;27.820;2023-11-21T10:09:47;98499.13;;;14.29;100.00
9905;BME280;4991;43.566;27.820;2023-11-21T10:12:15;98504.97;;;14.18;100.00
9905;BME280;4991;43.566;27.820;2023-11-21T10:14:42;98491.94;;;13.95;100.00
9905;BME280;4991;43.566;27.820;2023-11-21T10:17:12;98524.06;;;14.06;100.00
9905;BME280;4991;43.566;27.820;2023-11-21T10:19:42;98515.88;;;13.77;100.00
9905;BME280;4991;43.566;27.820;2023-11-21T10:22:08;98523.13;;;13.73;100.00
9905;BME280;4991;43.566;27.820;2023-11-21T10:24:35;98514.34;;;13.68;100.00
9905;BME280;4991;43.566;27.820;2023-11-21T10:27:01;98544.84;;;13.78;100.00
9905;BME280;4991;43.566;27.820;2023-11-21T10:29:31;98557.16;;;13.64;100.00
9905;BME280;4991;43.566;27.820;2023-11-21T10:32:03;98516.69;;;13.49;100.00
9905;BME280;4991;43.566;27.820;2023-11-21T10:34:31;98557.88;;;13.81;100.00
9905;BME280;4991;43.566;27.820;2023-11-21T10:36:57;98541.81;;;13.71;100.00
9905;BME280;4991;43.566;27.820;2023-11-21T10:39:24;98545.78;;;13.53;100.00
9905;BME280;4991;43.566;27.820;2023-11-21T10:41:54;98560.00;;;13.38;100.00
9905;BME280;4991;43.566;27.820;2023-11-21T10:44:20;98542.34;;;13.27;100.00
9905;BME280;4991;43.566;27.820;2023-11-21T10:46:50;98569.47;;;13.49;100.00
9905;BME280;4991;43.566;27.820;2023-11-21T10:49:25;98549.59;;;13.69;100.00
9905;BME280;4991;43.566;27.820;2023-11-21T10:51:53;98539.38;;;13.49;100.00
9905;BME280;4991;43.566;27.820;2023-11-21T10:54:24;98529.47;;;13.36;100.00
9905;BME280;4991;43.566;27.820;2023-11-21T10:56:55;98552.06;;;13.54;100.00
9905;BME280;4991;43.566;27.820;2023-11-21T10:59:22;98535.97;;;13.52;100.00
9905;BME280;4991;43.566;27.820;2023-11-21T11:01:50;98508.50;;;13.40;100.00
9905;BME280;4991;43.566;27.820;2023-11-21T11:04:21;98547.78;;;13.73;100.00
9905;BME280;4991;43.566;27.820;2023-11-21T11:07:03;98531.25;;;13.90;100.00
9905;BME280;4991;43.566;27.820;2023-11-21T11:09:32;98536.03;;;14.22;100.00
9905;BME280;4991;43.566;27.820;2023-11-21T11:12:04;98542.75;;;14.34;100.00
9905;BME280;4991;43.566;27.820;2023-11-21T11:14:30;98524.81;;;14.36;100.00
9905;BME280;4991;43.566;27.820;2023-11-21T11:16:58;98536.28;;;14.71;100.00
9905;BME280;4991;43.566;27.820;2023-11-21T11:19:25;98520.94;;;14.58;100.00
9905;BME280;4991;43.566;27.820;2023-11-21T11:22:16;98526.19;;;14.51;100.00
9905;BME280;4991;43.566;27.820;2023-11-21T11:28:19;98530.56;;;14.22;100.00
9905;BME280;4991;43.566;27.820;2023-11-21T11:31:05;98513.38;;;14.13;100.00
9905;BME280;4991;43.566;27.820;2023-11-21T11:33:42;98474.19;;;14.01;100.00
9905;BME280;4991;43.566;27.820;2023-11-21T11:38:52;98488.13;;;14.82;100.00
9905;BME280;4991;43.566;27.820;2023-11-21T11:41:30;98522.28;;;15.17;100.00
9905;BME280;4991;43.566;27.820;2023-11-21T11:43:58;98488.41;;;15.01;100.00
9905;BME280;4991;43.566;27.820;2023-11-21T11:46:41;98491.59;;;15.03;100.00
9905;BME280;4991;43.566;27.820;2023-11-21T11:49:07;98533.03;;;15.34;100.00
9905;BME280;4991;43.566;27.820;2023-11-21T11:51:33;98471.81;;;14.97;100.00
9905;BME280;4991;43.566;27.820;2023-11-21T11:54:01;98526.69;;;15.54;100.00
9905;BME280;4991;43.566;27.820;2023-11-21T11:56:33;98529.06;;;16.04;100.00
9905;BME280;4991;43.566;27.820;2023-11-21T11:59:04;98524.84;;;16.86;100.00
9905;BME280;4991;43.566;27.820;2023-11-21T12:01:33;98512.47;;;17.85;100.00
9905;BME280;4991;43.566;27.820;2023-11-21T12:04:22;98511.59;;;18.69;100.00
9905;BME280;4991;43.566;27.820;2023-11-21T12:06:51;98508.66;;;19.65;100.00
9905;BME280;4991;43.566;27.820;2023-11-21T12:09:22;98511.13;;;20.22;100.00
9905;BME280;4991;43.566;27.820;2023-11-21T12:11:50;98493.13;;;20.35;100.00
9905;BME280;4991;43.566;27.820;2023-11-21T12:14:16;98519.91;;;21.63;100.00
9905;BME280;4991;43.566;27.820;2023-11-21T12:16:43;98480.38;;;21.26;100.00
9905;BME280;4991;43.566;27.820;2023-11-21T12:19:12;98506.63;;;21.03;100.00
9905;BME280;4991;43.566;27.820;2023-11-21T12:21:38;98496.50;;;21.17;100.00
9905;BME280;4991;43.566;27.820;2023-11-21T12:24:04;98470.84;;;20.87;100.00
9905;BME280;4991;43.566;27.820;2023-11-21T12:26:34;98469.09;;;20.72;100.00
9905;BME280;4991;43.566;27.820;2023-11-21T12:29:02;98479.31;;;20.35;100.00
9905;BME280;4991;43.566;27.820;2023-11-21T12:31:30;98494.44;;;20.74;100.00
9905;BME280;4991;43.566;27.820;2023-11-21T12:33:56;98476.25;;;20.77;100.00
9905;BME280;4991;43.566;27.820;2023-11-21T12:36:22;98479.63;;;21.77;100.00
9905;BME280;4991;43.566;27.820;2023-11-21T12:38:48;98488.91;;;21.98;100.00
9905;BME280;4991;43.566;27.820;2023-11-21T12:41:15;98443.44;;;22.13;100.00
9905;BME280;4991;43.566;27.820;2023-11-21T12:43:42;98463.81;;;22.49;100.00
9905;BME280;4991;43.566;27.820;2023-11-21T12:46:10;98468.41;;;23.17;100.00
9905;BME280;4991;43.566;27.820;2023-11-21T12:48:44;98475.16;;;23.23;100.00
9905;BME280;4991;43.566;27.820;2023-11-21T12:51:11;98480.75;;;23.37;100.00
9905;BME280;4991;43.566;27.820;2023-11-21T12:53:41;98465.56;;;22.81;100.00
9905;BME280;4991;43.566;27.820;2023-11-21T12:56:09;98466.47;;;21.66;100.00
9905;BME280;4991;43.566;27.820;2023-11-21T12:58:37;98487.53;;;22.36;100.00
9905;BME280;4991;43.566;27.820;2023-11-21T13:01:06;98474.78;;;22.24;100.00
9905;BME280;4991;43.566;27.820;2023-11-21T13:03:39;98490.09;;;22.72;100.00
9905;BME280;4991;43.566;27.820;2023-11-21T13:06:06;98487.84;;;21.66;100.00
9905;BME280;4991;43.566;27.820;2023-11-21T13:08:33;98486.66;;;20.87;100.00
9905;BME280;4991;43.566;27.820;2023-11-21T13:10:59;98476.97;;;20.37;100.00
9905;BME280;4991;43.566;27.820;2023-11-21T13:13:28;98452.50;;;20.39;100.00
9905;BME280;4991;43.566;27.820;2023-11-21T13:15:59;98497.94;;;21.01;100.00
9905;BME280;4991;43.566;27.820;2023-11-21T13:18:33;98469.91;;;19.61;100.00